Time;durP1;ratioP1;P1;durP2;ratioP2;P2;SDS_P1;SDS_P2;PMS_P1;PMS_P2;Temp;Humidity;BMP_temperature;BMP_pressure;BME280_temperature;BME280_humidity;BME280_pressure;Samples;Min_cycle;Max_cycle;Signal;HPM_P1;HPM_P2
2023/12/07 00:01:25;;;;;;;4.00;3.40;;;1.70;99.90;;;;;;4990037;28;20219;-71
2023/12/07 00:03:52;;;;;;;5.18;2.78;;;1.80;99.90;;;;;;4991603;28;20626;-72
2023/12/07 00:06:19;;;;;;;4.30;3.17;;;1.80;99.90;;;;;;4999745;28;20210;-71
2023/12/07 00:08:45;;;;;;;3.75;2.70;;;1.80;99.90;;;;;;4991424;28;20215;-71
2023/12/07 00:11:12;;;;;;;5.97;3.90;;;1.80;99.90;;;;;;4991049;28;20245;-71
2023/12/07 00:13:39;;;;;;;6.28;3.63;;;1.90;99.90;;;;;;4991944;28;20216;-71
2023/12/07 04:32:21;;;;;;;2.28;2.08;;;-1.00;99.90;;;;;;5296303;22;20235;-72
2023/12/07 04:34:48;;;;;;;7.47;3.05;;;-1.00;99.90;;;;;;5013821;28;20211;-72
2023/12/07 04:37:15;;;;;;;3.42;2.90;;;-1.10;99.90;;;;;;5013069;28;20206;-73
2023/12/07 04:39:41;;;;;;;8.73;3.95;;;-1.10;99.90;;;;;;5013654;28;20209;-73
2023/12/07 04:42:08;;;;;;;2.15;1.95;;;-1.10;99.90;;;;;;5003916;28;20223;-74
2023/12/07 04:44:35;;;;;;;3.50;3.20;;;-1.20;99.90;;;;;;5001939;28;20288;-73
2023/12/07 04:47:01;;;;;;;3.40;1.95;;;-1.20;99.90;;;;;;5005543;28;20207;-74
2023/12/07 04:49:29;;;;;;;2.13;1.88;;;-1.20;99.90;;;;;;5002704;28;20201;-74
2023/12/07 04:51:56;;;;;;;4.18;2.85;;;-1.30;99.90;;;;;;5001188;28;20223;-73
2023/12/07 04:54:23;;;;;;;3.20;2.90;;;-1.20;99.90;;;;;;5003690;28;20233;-74
2023/12/07 04:56:50;;;;;;;3.70;3.40;;;-1.30;99.90;;;;;;5000872;28;20294;-73
2023/12/07 04:59:17;;;;;;;4.18;2.60;;;-1.30;99.90;;;;;;5003758;28;20226;-74
2023/12/07 05:01:44;;;;;;;3.22;2.30;;;-1.30;99.90;;;;;;5001091;28;20595;-74
2023/12/07 05:04:10;;;;;;;5.38;3.75;;;-1.30;99.90;;;;;;5003420;28;20215;-73
2023/12/07 05:06:38;;;;;;;4.95;3.00;;;-1.40;99.90;;;;;;5006470;28;20210;-73
2023/12/07 05:09:08;;;;;;;3.50;2.67;;;-1.40;99.90;;;;;;5002244;28;20199;-73
2023/12/07 05:11:36;;;;;;;4.43;2.58;;;-1.40;99.90;;;;;;5002627;28;20285;-74
2023/12/07 05:14:03;;;;;;;5.80;2.72;;;-1.40;99.90;;;;;;5002258;28;20667;-74
2023/12/07 05:16:30;;;;;;;3.28;3.05;;;-1.50;99.90;;;;;;5003142;28;20818;-74
2023/12/07 05:18:56;;;;;;;2.63;2.42;;;-1.50;99.90;;;;;;5001045;28;20250;-74
2023/12/07 05:21:23;;;;;;;5.60;3.45;;;-1.50;99.90;;;;;;5004413;28;20230;-74
2023/12/07 05:23:51;;;;;;;3.75;2.35;;;-1.50;99.90;;;;;;5001967;28;20211;-75
2023/12/07 05:26:18;;;;;;;6.45;3.28;;;-1.60;99.90;;;;;;5007503;28;20202;-75
2023/12/07 05:28:44;;;;;;;3.88;3.65;;;-1.60;99.90;;;;;;5004138;28;20202;-75
2023/12/07 05:31:17;;;;;;;5.80;3.47;;;-1.60;99.90;;;;;;5007123;28;20615;-75
2023/12/07 05:33:44;;;;;;;3.20;2.28;;;-1.60;99.90;;;;;;5005555;28;20207;-75
2023/12/07 05:36:11;;;;;;;5.45;4.10;;;-1.60;99.90;;;;;;5005876;28;20203;-75
2023/12/07 05:38:38;;;;;;;4.45;4.05;;;-1.70;99.90;;;;;;5003950;28;20253;-75
2023/12/07 05:41:06;;;;;;;2.53;2.20;;;-1.60;99.90;;;;;;5004587;28;20233;-75
2023/12/07 05:43:33;;;;;;;4.30;3.90;;;-1.60;99.90;;;;;;5005972;28;20735;-75
2023/12/07 05:46:00;;;;;;;3.50;3.20;;;-1.70;99.90;;;;;;5004170;28;20203;-75
2023/12/07 05:48:27;;;;;;;3.30;3.00;;;-1.70;99.90;;;;;;5006847;28;20248;-75
2023/12/07 05:50:53;;;;;;;4.43;3.90;;;-1.70;99.90;;;;;;5003711;28;20226;-75
2023/12/07 05:53:20;;;;;;;7.20;3.30;;;-1.70;99.90;;;;;;4998804;28;20213;-74
2023/12/07 05:55:47;;;;;;;3.67;2.83;;;-1.70;99.90;;;;;;5003542;28;20577;-75
2023/12/07 05:58:17;;;;;;;8.55;3.58;;;-1.70;99.90;;;;;;5005055;28;20237;-74
2023/12/07 06:00:46;;;;;;;2.67;2.33;;;-1.70;99.90;;;;;;5004620;28;20257;-75
2023/12/07 06:03:13;;;;;;;3.45;2.33;;;-1.70;99.90;;;;;;5006010;28;20213;-75
2023/12/07 06:05:40;;;;;;;2.83;2.55;;;-1.70;99.90;;;;;;5004556;28;20276;-74
2023/12/07 06:08:07;;;;;;;3.10;2.78;;;-1.70;99.90;;;;;;5004439;28;20463;-74
2023/12/07 06:10:34;;;;;;;3.45;3.13;;;-1.70;99.90;;;;;;5005819;28;20261;-75
2023/12/07 06:13:01;;;;;;;3.55;3.15;;;-1.80;99.90;;;;;;5004574;28;20217;-74
2023/12/07 06:15:29;;;;;;;3.42;2.88;;;-1.80;99.90;;;;;;5006671;28;20203;-75
2023/12/07 06:17:57;;;;;;;4.15;2.90;;;-1.80;99.90;;;;;;5003304;28;20275;-74
2023/12/07 06:20:24;;;;;;;2.92;2.63;;;-1.80;99.90;;;;;;5006374;28;20207;-73
2023/12/07 06:22:50;;;;;;;2.80;2.55;;;-1.80;99.90;;;;;;5002111;28;20210;-75
2023/12/07 06:25:17;;;;;;;2.33;2.13;;;-1.80;99.90;;;;;;5005354;28;20198;-74
2023/12/07 06:27:44;;;;;;;2.28;2.13;;;-1.80;99.90;;;;;;5002300;28;20229;-73
2023/12/07 06:30:11;;;;;;;3.15;2.95;;;-1.80;99.90;;;;;;5004192;28;20226;-74
2023/12/07 06:32:39;;;;;;;3.53;3.20;;;-1.80;99.90;;;;;;5003687;28;20323;-74
2023/12/07 06:35:07;;;;;;;5.07;2.97;;;-1.80;99.90;;;;;;5003339;28;20210;-74
2023/12/07 06:37:33;;;;;;;4.30;3.80;;;-1.80;99.90;;;;;;5003833;28;20289;-74
2023/12/07 06:40:01;;;;;;;3.22;2.88;;;-1.90;99.90;;;;;;5002366;28;20235;-74
2023/12/07 06:42:27;;;;;;;2.80;2.50;;;-1.90;99.90;;;;;;5006699;28;20245;-74
2023/12/07 06:44:53;;;;;;;3.17;2.45;;;-1.90;99.90;;;;;;5002954;28;20241;-75
2023/12/07 06:47:20;;;;;;;5.20;2.83;;;-1.90;99.90;;;;;;5006082;28;20226;-75
2023/12/07 06:49:48;;;;;;;4.05;3.63;;;-1.90;99.90;;;;;;5004271;28;20232;-74
2023/12/07 06:52:15;;;;;;;5.65;3.03;;;-1.90;99.90;;;;;;5006016;28;20222;-75
2023/12/07 06:54:42;;;;;;;4.10;3.03;;;-1.90;99.90;;;;;;5005273;28;20627;-75
2023/12/07 06:57:08;;;;;;;2.90;2.65;;;-2.00;99.90;;;;;;5005506;28;20203;-75
2023/12/07 06:59:35;;;;;;;4.57;2.97;;;-2.00;99.90;;;;;;5006046;28;20226;-75
2023/12/07 07:02:02;;;;;;;2.22;1.92;;;-2.00;99.90;;;;;;5004563;28;20715;-75
2023/12/07 07:04:29;;;;;;;6.32;4.00;;;-2.00;99.90;;;;;;5007262;28;20203;-74
2023/12/07 07:06:57;;;;;;;2.85;2.60;;;-2.00;99.90;;;;;;5003924;28;20234;-75
2023/12/07 07:09:24;;;;;;;5.10;3.83;;;-2.10;99.90;;;;;;5006078;28;20233;-75
2023/12/07 07:11:52;;;;;;;2.35;2.15;;;-2.00;99.90;;;;;;5004195;28;20237;-75
2023/12/07 07:14:19;;;;;;;6.00;3.58;;;-2.00;99.90;;;;;;4996967;28;20553;-74
2023/12/07 07:16:46;;;;;;;6.75;4.00;;;-2.00;99.90;;;;;;5005092;28;20213;-75
2023/12/07 07:19:12;;;;;;;3.08;2.15;;;-2.00;99.90;;;;;;5005525;28;20219;-74
2023/12/07 07:21:39;;;;;;;4.10;2.55;;;-2.00;99.90;;;;;;5005826;28;20226;-75
2023/12/07 07:24:08;;;;;;;3.85;3.50;;;-2.00;99.90;;;;;;5005683;28;20211;-74
2023/12/07 07:26:34;;;;;;;2.75;2.25;;;-2.00;99.90;;;;;;5006629;28;20214;-75
2023/12/07 07:29:02;;;;;;;3.05;2.22;;;-2.00;99.90;;;;;;5002987;28;20199;-75
2023/12/07 07:31:29;;;;;;;2.15;2.03;;;-1.80;99.90;;;;;;5005856;28;20226;-75
2023/12/07 07:33:56;;;;;;;3.28;2.83;;;-1.20;99.90;;;;;;5003363;28;20210;-75
2023/12/07 07:36:23;;;;;;;5.15;4.20;;;-1.30;99.90;;;;;;5006177;28;20226;-75
2023/12/07 07:38:50;;;;;;;2.97;2.53;;;-1.40;99.90;;;;;;5003712;28;20229;-75
2023/12/07 07:41:18;;;;;;;3.67;1.90;;;-1.50;99.90;;;;;;5006184;28;20222;-75
2023/12/07 07:43:44;;;;;;;7.50;3.60;;;-1.60;99.90;;;;;;5005137;28;20697;-73
2023/12/07 07:46:11;;;;;;;3.08;2.65;;;-1.60;99.90;;;;;;5005216;28;20227;-75
2023/12/07 07:48:39;;;;;;;3.75;3.38;;;-1.70;99.90;;;;;;5005531;28;20199;-75
2023/12/07 07:51:06;;;;;;;7.75;3.20;;;-1.60;99.90;;;;;;5004480;28;20681;-75
2023/12/07 07:53:33;;;;;;;2.90;2.60;;;-1.30;99.90;;;;;;5006710;28;20225;-75
2023/12/07 07:55:59;;;;;;;9.32;5.18;;;-0.90;99.90;;;;;;5004077;28;20207;-75
2023/12/07 07:58:27;;;;;;;6.30;4.22;;;-0.50;99.90;;;;;;5006252;28;20203;-75
2023/12/07 08:00:54;;;;;;;4.80;3.40;;;0.10;99.90;;;;;;5004107;28;20844;-75
2023/12/07 08:03:21;;;;;;;6.38;3.80;;;0.40;99.90;;;;;;5006720;28;20225;-75
2023/12/07 08:05:47;;;;;;;7.05;4.50;;;0.70;99.90;;;;;;5004993;28;20210;-75
2023/12/07 08:08:14;;;;;;;4.90;4.50;;;1.40;99.90;;;;;;5005615;28;20214;-75
2023/12/07 08:10:41;;;;;;;8.05;4.72;;;2.30;99.90;;;;;;5006687;28;20625;-75
2023/12/07 08:13:08;;;;;;;4.18;3.83;;;3.40;99.90;;;;;;5005157;28;20210;-75
2023/12/07 08:15:36;;;;;;;3.72;3.42;;;4.10;99.90;;;;;;5007297;28;20257;-75
2023/12/07 08:18:03;;;;;;;6.40;3.35;;;4.50;99.90;;;;;;5004530;28;20644;-75
2023/12/07 08:20:29;;;;;;;4.70;3.25;;;4.60;99.90;;;;;;5006686;28;20222;-75
2023/12/07 08:22:56;;;;;;;12.70;3.88;;;4.80;99.90;;;;;;5007461;28;20592;-75
2023/12/07 08:25:23;;;;;;;6.38;4.40;;;5.00;99.90;;;;;;5011042;28;20219;-75
2023/12/07 08:27:49;;;;;;;7.50;4.30;;;5.20;99.90;;;;;;5008858;28;20211;-75
2023/12/07 08:30:16;;;;;;;5.75;4.10;;;5.40;99.90;;;;;;5010623;28;20204;-75
2023/12/07 08:32:44;;;;;;;6.07;3.75;;;5.50;99.90;;;;;;5010728;28;20218;-75
2023/12/07 08:35:11;;;;;;;4.20;3.80;;;5.60;99.90;;;;;;5010216;28;20206;-75
2023/12/07 08:37:39;;;;;;;6.32;4.75;;;5.70;99.90;;;;;;5010943;28;20213;-75
2023/12/07 08:40:07;;;;;;;4.03;3.22;;;5.70;99.90;;;;;;5009930;28;20314;-75
2023/12/07 08:42:34;;;;;;;3.88;3.15;;;5.80;99.90;;;;;;5011468;28;20233;-74
2023/12/07 08:45:00;;;;;;;4.93;4.32;;;5.90;99.90;;;;;;5009670;28;20213;-74
2023/12/07 08:47:28;;;;;;;4.07;3.55;;;5.90;99.90;;;;;;5010815;28;20210;-74
2023/12/07 08:49:56;;;;;;;5.40;3.83;;;5.80;99.90;;;;;;5009901;28;20253;-71
2023/12/07 08:52:23;;;;;;;5.97;3.85;;;5.70;99.90;;;;;;5011391;28;20231;-74
2023/12/07 08:54:49;;;;;;;5.22;3.75;;;5.60;99.90;;;;;;5010225;28;20213;-74
2023/12/07 08:57:18;;;;;;;5.13;3.90;;;5.40;99.90;;;;;;5010582;28;20209;-74
2023/12/07 08:59:45;;;;;;;3.72;3.20;;;5.10;99.90;;;;;;5011416;28;20645;-74
2023/12/07 09:02:11;;;;;;;4.15;3.10;;;4.50;99.90;;;;;;5002519;28;20853;-74
2023/12/07 09:04:39;;;;;;;5.60;4.55;;;4.00;99.90;;;;;;5006308;28;20232;-74
2023/12/07 09:07:09;;;;;;;4.63;4.00;;;3.60;99.90;;;;;;5002422;28;20207;-74
2023/12/07 09:09:36;;;;;;;4.90;3.58;;;3.20;99.90;;;;;;5010823;28;20215;-74
2023/12/07 09:12:03;;;;;;;5.10;3.67;;;3.10;99.90;;;;;;5009708;28;20230;-74
2023/12/07 09:14:30;;;;;;;7.93;3.83;;;3.70;99.90;;;;;;5011866;28;20215;-74
2023/12/07 09:16:56;;;;;;;5.25;3.67;;;4.70;99.90;;;;;;5010041;28;20692;-74
2023/12/07 09:19:23;;;;;;;4.97;3.60;;;5.50;99.90;;;;;;5011242;28;20306;-74
2023/12/07 09:21:50;;;;;;;3.75;3.40;;;7.20;99.90;;;;;;5011195;28;20309;-74
2023/12/07 09:24:19;;;;;;;3.58;3.25;;;9.70;99.90;;;;;;5011958;28;20209;-75
2023/12/07 09:26:47;;;;;;;4.30;3.60;;;12.30;99.90;;;;;;5011884;28;20212;-75
2023/12/07 09:29:14;;;;;;;3.83;3.47;;;14.40;99.90;;;;;;5009406;28;20320;-74
2023/12/07 09:31:44;;;;;;;3.00;2.75;;;16.00;99.20;;;;;;5012411;28;20230;-75
2023/12/07 09:34:11;;;;;;;7.20;3.78;;;16.30;95.10;;;;;;5012960;28;20266;-74
2023/12/07 09:36:38;;;;;;;4.93;3.28;;;16.10;95.40;;;;;;5014246;28;20243;-74
2023/12/07 09:39:06;;;;;;;4.97;3.05;;;16.30;95.00;;;;;;5012704;28;20249;-75
2023/12/07 09:41:34;;;;;;;3.20;2.90;;;16.20;94.10;;;;;;5014454;28;20274;-74
2023/12/07 09:44:01;;;;;;;4.77;2.70;;;15.70;94.30;;;;;;5012963;28;20521;-74
2023/12/07 09:46:30;;;;;;;3.47;3.07;;;16.20;94.30;;;;;;5013323;28;20457;-74
2023/12/07 09:48:57;;;;;;;4.27;3.47;;;16.60;92.70;;;;;;5012027;28;20511;-74
2023/12/07 09:51:24;;;;;;;3.17;2.63;;;17.00;92.50;;;;;;5013038;28;21000;-74
2023/12/07 09:53:54;;;;;;;3.87;3.47;;;17.70;92.00;;;;;;5011593;28;21166;-74
2023/12/07 09:56:21;;;;;;;3.70;3.40;;;19.00;91.30;;;;;;4997423;28;21029;-74
2023/12/07 09:58:49;;;;;;;3.17;2.43;;;20.20;90.90;;;;;;5011399;28;20454;-74
2023/12/07 10:01:16;;;;;;;4.83;3.53;;;21.20;90.80;;;;;;5011251;28;20497;-75
2023/12/07 10:03:44;;;;;;;3.70;3.40;;;22.30;89.90;;;;;;5010975;28;20527;-74
2023/12/07 10:06:10;;;;;;;6.30;4.20;;;23.30;88.00;;;;;;5002235;28;20464;-75
2023/12/07 10:08:37;;;;;;;3.60;3.10;;;24.10;86.30;;;;;;5010643;28;20840;-75
2023/12/07 10:11:08;;;;;;;5.00;3.77;;;24.70;84.30;;;;;;5010322;28;20484;-75
2023/12/07 10:13:36;;;;;;;5.23;3.70;;;25.10;82.40;;;;;;5011290;28;20889;-75
2023/12/07 10:16:14;;;;;;;3.90;3.50;;;25.40;81.40;;;;;;5009936;28;20458;-75
2023/12/07 10:18:41;;;;;;;4.70;4.13;;;24.80;79.60;;;;;;5010907;28;20462;-75
2023/12/07 10:21:10;;;;;;;5.27;3.83;;;24.60;79.70;;;;;;5010501;28;20524;-75
2023/12/07 10:23:37;;;;;;;4.90;4.40;;;24.60;80.20;;;;;;5011157;28;20461;-74
2023/12/07 10:26:06;;;;;;;6.40;3.63;;;24.50;79.90;;;;;;5010457;28;20544;-75
2023/12/07 10:28:35;;;;;;;4.70;4.20;;;24.50;79.10;;;;;;5011534;28;20461;-74
2023/12/07 10:31:02;;;;;;;4.67;4.17;;;24.70;78.30;;;;;;5011414;28;20478;-74
2023/12/07 10:33:30;;;;;;;3.87;3.57;;;24.60;78.00;;;;;;5004862;28;20457;-74
2023/12/07 10:35:57;;;;;;;6.50;4.50;;;24.30;78.00;;;;;;5010886;28;20469;-74
2023/12/07 10:38:23;;;;;;;5.07;3.50;;;24.10;77.90;;;;;;5011202;28;20843;-74
2023/12/07 10:41:02;;;;;;;3.63;3.30;;;24.30;77.40;;;;;;5011993;28;20493;-74
2023/12/07 10:43:29;;;;;;;4.13;3.27;;;24.50;77.40;;;;;;4994404;28;20470;-74
2023/12/07 10:45:56;;;;;;;3.30;3.00;;;24.60;77.80;;;;;;4991084;28;20822;-74
2023/12/07 10:48:23;;;;;;;3.97;3.67;;;25.00;75.20;;;;;;4991875;28;20466;-74
2023/12/07 10:50:53;;;;;;;4.70;3.47;;;25.30;74.00;;;;;;4992502;28;20478;-74
2023/12/07 10:53:27;;;;;;;5.30;3.87;;;25.30;73.50;;;;;;4984481;28;20465;-74
2023/12/07 10:55:57;;;;;;;4.00;3.60;;;25.20;74.20;;;;;;4992381;28;20469;-74
2023/12/07 10:58:25;;;;;;;4.10;3.20;;;24.80;74.10;;;;;;4985079;28;20553;-75
2023/12/07 11:00:53;;;;;;;3.57;3.30;;;25.00;73.80;;;;;;4992206;28;21061;-74
2023/12/07 11:03:20;;;;;;;3.60;3.20;;;24.70;74.10;;;;;;4992494;28;20486;-74
2023/12/07 11:05:47;;;;;;;3.83;3.43;;;24.60;73.30;;;;;;4993964;28;20517;-72
2023/12/07 11:08:22;;;;;;;4.77;3.20;;;24.80;73.30;;;;;;4991836;28;20552;-72
2023/12/07 11:10:56;;;;;;;3.57;3.17;;;24.70;72.60;;;;;;4993088;28;20482;-74
2023/12/07 11:13:28;;;;;;;4.23;3.03;;;23.70;71.50;;;;;;4987482;28;20465;-74
2023/12/07 11:15:55;;;;;;;5.97;3.80;;;23.10;73.10;;;;;;4994882;28;20981;-74
2023/12/07 11:18:21;;;;;;;3.53;2.90;;;22.70;71.90;;;;;;4994164;28;20466;-74
2023/12/07 11:20:48;;;;;;;3.30;2.90;;;21.80;72.90;;;;;;4994275;28;20493;-74
2023/12/07 11:23:19;;;;;;;4.13;3.13;;;20.50;74.40;;;;;;4994673;28;20474;-74
2023/12/07 11:25:47;;;;;;;5.10;3.10;;;19.30;74.90;;;;;;4993693;28;20513;-74
2023/12/07 11:28:14;;;;;;;3.23;2.90;;;17.90;77.30;;;;;;4993304;28;20469;-74
2023/12/07 11:30:44;;;;;;;4.53;3.00;;;16.80;79.00;;;;;;4992975;28;20481;-74
2023/12/07 11:33:12;;;;;;;3.17;2.83;;;16.10;79.70;;;;;;4993443;28;20472;-74
2023/12/07 11:36:07;;;;;;;5.00;3.13;;;15.40;80.00;;;;;;4993078;28;20905;-74
2023/12/07 11:38:36;;;;;;;3.90;2.80;;;15.10;81.00;;;;;;4986839;28;20474;-74
2023/12/07 11:41:03;;;;;;;4.30;2.80;;;14.30;82.20;;;;;;4993655;28;20868;-74
2023/12/07 11:43:45;;;;;;;4.10;2.90;;;13.80;83.40;;;;;;4993133;28;20489;-74
2023/12/07 11:46:14;;;;;;;3.40;2.63;;;12.90;84.80;;;;;;4992019;28;20466;-73
2023/12/07 11:48:40;;;;;;;6.30;3.80;;;12.40;86.50;;;;;;4993003;28;20458;-74
2023/12/07 11:51:08;;;;;;;2.55;2.35;;;12.60;86.50;;;;;;4993720;28;20224;-74
2023/12/07 11:53:37;;;;;;;3.45;2.55;;;12.50;85.90;;;;;;4993262;28;20690;-74
2023/12/07 11:56:05;;;;;;;3.65;2.33;;;12.00;86.10;;;;;;4993921;28;20214;-74
2023/12/07 11:58:34;;;;;;;3.50;2.75;;;11.90;87.20;;;;;;4996738;28;20206;-74
2023/12/07 12:01:02;;;;;;;3.22;2.92;;;12.00;88.70;;;;;;4998101;28;20227;-74
2023/12/07 12:03:31;;;;;;;3.67;2.97;;;11.80;88.50;;;;;;4997273;28;20210;-74
2023/12/07 12:05:57;;;;;;;3.20;2.90;;;11.60;89.90;;;;;;4998809;28;20241;-74
2023/12/07 12:08:25;;;;;;;3.63;2.85;;;11.40;90.00;;;;;;4997366;28;20698;-74
2023/12/07 12:10:56;;;;;;;2.70;2.42;;;10.90;90.40;;;;;;4997504;28;20229;-73
2023/12/07 12:13:27;;;;;;;4.28;3.28;;;10.50;90.90;;;;;;4996693;28;20210;-73
2023/12/07 12:15:55;;;;;;;3.55;3.25;;;9.80;92.20;;;;;;4997067;28;20209;-74
2023/12/07 12:18:23;;;;;;;2.80;2.45;;;9.00;92.70;;;;;;4996596;28;20217;-73
2023/12/07 12:20:51;;;;;;;5.43;2.47;;;8.40;92.90;;;;;;4997769;28;20255;-73
2023/12/07 12:23:18;;;;;;;3.20;2.42;;;8.20;93.50;;;;;;4998976;28;20686;-73
2023/12/07 12:25:46;;;;;;;4.20;2.42;;;8.00;93.90;;;;;;4997720;28;20635;-73
2023/12/07 12:28:17;;;;;;;4.45;2.80;;;7.90;93.70;;;;;;4998421;28;20215;-73
2023/12/07 12:30:44;;;;;;;3.20;2.20;;;7.80;93.90;;;;;;4995585;28;20250;-73
2023/12/07 12:33:11;;;;;;;4.20;3.25;;;7.80;93.90;;;;;;4999481;28;20208;-74
2023/12/07 12:35:38;;;;;;;2.50;2.30;;;7.80;93.80;;;;;;4998625;28;20218;-73
2023/12/07 12:38:10;;;;;;;2.90;2.50;;;7.70;93.30;;;;;;5000040;28;20211;-73
2023/12/07 12:40:37;;;;;;;4.40;2.50;;;7.80;93.00;;;;;;4999741;28;20692;-73
2023/12/07 12:43:04;;;;;;;3.03;2.40;;;7.70;93.40;;;;;;5000902;28;20215;-73
2023/12/07 12:45:33;;;;;;;2.75;2.28;;;7.40;93.70;;;;;;4998929;28;20214;-73
2023/12/07 12:48:00;;;;;;;3.72;2.45;;;7.00;94.00;;;;;;4999196;28;20215;-75
2023/12/07 12:50:38;;;;;;;2.65;2.28;;;6.90;95.30;;;;;;4999060;28;20212;-75
2023/12/07 12:53:05;;;;;;;2.47;2.17;;;6.70;95.40;;;;;;5000163;28;20215;-74
2023/12/07 12:55:34;;;;;;;2.80;2.30;;;6.80;95.60;;;;;;4991696;28;20203;-74
2023/12/07 12:58:03;;;;;;;3.10;2.50;;;6.60;95.10;;;;;;4999321;28;20218;-74
2023/12/07 13:00:32;;;;;;;3.72;2.83;;;6.50;95.30;;;;;;4998474;28;20217;-74
2023/12/07 13:02:59;;;;;;;2.88;2.30;;;6.50;95.20;;;;;;4999481;28;20236;-74
2023/12/07 13:05:26;;;;;;;5.32;2.90;;;6.50;95.60;;;;;;4999077;28;20569;-74
2023/12/07 13:07:53;;;;;;;2.58;1.90;;;6.50;95.40;;;;;;4998233;28;20585;-74
2023/12/07 13:10:20;;;;;;;2.38;2.17;;;6.40;95.90;;;;;;4998493;28;20218;-74
2023/12/07 13:12:47;;;;;;;4.68;2.53;;;6.50;96.40;;;;;;4999059;28;20231;-74
2023/12/07 13:15:15;;;;;;;3.38;2.33;;;6.50;96.40;;;;;;5001174;28;20242;-74
2023/12/07 13:17:43;;;;;;;8.52;2.95;;;6.80;96.10;;;;;;4998785;28;20207;-74
2023/12/07 13:20:11;;;;;;;2.65;2.42;;;7.00;96.00;;;;;;5001063;28;20208;-74
2023/12/07 13:22:38;;;;;;;2.90;2.60;;;7.20;95.90;;;;;;4999210;28;20227;-74
2023/12/07 13:25:07;;;;;;;3.35;2.55;;;7.30;95.60;;;;;;5000125;28;20207;-74
2023/12/07 13:27:34;;;;;;;5.20;2.70;;;6.90;96.00;;;;;;4998291;28;20222;-74
2023/12/07 13:30:00;;;;;;;3.78;2.50;;;6.60;96.40;;;;;;4999587;28;20721;-74
2023/12/07 13:32:27;;;;;;;3.10;2.38;;;6.10;96.30;;;;;;4999356;28;20226;-74
2023/12/07 13:34:55;;;;;;;4.93;2.72;;;5.80;97.00;;;;;;4998714;28;20207;-74
2023/12/07 13:37:22;;;;;;;2.95;2.50;;;5.50;97.30;;;;;;4996138;28;20209;-74
2023/12/07 13:39:52;;;;;;;4.75;2.70;;;5.40;97.60;;;;;;4998649;28;20207;-74
2023/12/07 13:42:19;;;;;;;2.45;2.25;;;5.40;98.00;;;;;;4996009;28;20232;-73
2023/12/07 13:44:46;;;;;;;2.58;2.35;;;5.30;97.70;;;;;;4998455;28;20234;-74
2023/12/07 13:47:13;;;;;;;3.15;1.98;;;5.20;97.30;;;;;;5000874;28;20706;-74
2023/12/07 13:49:40;;;;;;;4.38;3.00;;;5.20;97.60;;;;;;4999582;28;20213;-74
2023/12/07 13:52:08;;;;;;;3.85;2.55;;;5.10;98.20;;;;;;5001044;28;20230;-74
2023/12/07 13:54:36;;;;;;;2.95;2.25;;;5.20;98.00;;;;;;4999380;28;20213;-74
2023/12/07 13:57:03;;;;;;;5.13;3.60;;;5.20;98.10;;;;;;4999651;28;20417;-75
2023/12/07 13:59:30;;;;;;;2.70;2.38;;;5.30;98.40;;;;;;4998999;28;20209;-72
2023/12/07 14:01:56;;;;;;;3.08;2.75;;;5.20;98.20;;;;;;4998722;28;20239;-75
2023/12/07 14:04:24;;;;;;;5.38;3.42;;;5.10;98.30;;;;;;4998379;28;20206;-75
2023/12/07 14:07:08;;;;;;;3.17;2.63;;;5.20;98.40;;;;;;5014956;28;20209;-74
2023/12/07 14:09:36;;;;;;;3.55;2.38;;;5.20;98.20;;;;;;4999234;28;20215;-73
2023/12/07 14:12:03;;;;;;;3.10;2.25;;;5.10;98.30;;;;;;5001942;28;20231;-74
2023/12/07 14:14:31;;;;;;;3.25;1.92;;;5.10;98.00;;;;;;5001027;28;20206;-73
2023/12/07 14:16:58;;;;;;;2.30;2.10;;;5.00;98.40;;;;;;5000932;28;20583;-74
2023/12/07 14:19:25;;;;;;;2.97;2.40;;;4.90;97.70;;;;;;5000296;28;20214;-75
2023/12/07 14:21:52;;;;;;;2.30;1.80;;;4.80;96.90;;;;;;4999185;28;20222;-74
2023/12/07 14:24:18;;;;;;;2.10;1.75;;;4.80;97.50;;;;;;5002703;28;20206;-75
2023/12/07 14:26:47;;;;;;;4.60;2.15;;;4.80;96.70;;;;;;4999891;28;20299;-75
2023/12/07 14:29:15;;;;;;;2.38;1.92;;;4.60;96.80;;;;;;5001878;28;20211;-75
2023/12/07 14:31:41;;;;;;;3.42;2.30;;;4.50;96.20;;;;;;5000107;28;20234;-74
2023/12/07 14:34:08;;;;;;;2.25;1.48;;;4.40;96.80;;;;;;5001508;28;20298;-74
2023/12/07 14:36:35;;;;;;;2.22;2.00;;;4.30;97.00;;;;;;5000215;28;20216;-75
2023/12/07 14:39:02;;;;;;;2.60;2.10;;;4.20;96.80;;;;;;5000663;28;20210;-74
2023/12/07 14:41:29;;;;;;;2.35;2.08;;;4.10;97.00;;;;;;5001613;28;20697;-75
2023/12/07 14:43:57;;;;;;;2.97;2.30;;;4.10;97.20;;;;;;4999900;28;20210;-74
2023/12/07 14:46:23;;;;;;;2.38;2.17;;;4.10;97.60;;;;;;5001885;28;20302;-74
2023/12/07 14:48:51;;;;;;;1.50;1.20;;;4.10;98.10;;;;;;4999742;28;20211;-74
2023/12/07 14:51:20;;;;;;;7.22;2.80;;;4.00;97.60;;;;;;5003203;28;20218;-74
2023/12/07 14:53:47;;;;;;;2.42;1.90;;;4.00;97.80;;;;;;4999889;28;20214;-73
2023/12/07 14:56:14;;;;;;;2.17;2.00;;;3.90;97.80;;;;;;5002601;28;20210;-74
2023/12/07 14:58:41;;;;;;;2.05;1.85;;;3.90;97.40;;;;;;5000197;28;20206;-73
2023/12/07 15:01:09;;;;;;;2.35;1.83;;;3.70;97.50;;;;;;5001702;28;20236;-74
2023/12/07 15:03:35;;;;;;;1.83;1.40;;;3.70;97.60;;;;;;5000451;28;20240;-73
2023/12/07 15:06:02;;;;;;;2.85;1.55;;;3.60;97.50;;;;;;5000179;28;20203;-73
2023/12/07 15:08:29;;;;;;;8.50;2.53;;;3.50;97.50;;;;;;5001908;28;20208;-74
2023/12/07 15:10:56;;;;;;;2.13;1.58;;;3.40;97.20;;;;;;4999939;28;20224;-74
2023/12/07 15:13:22;;;;;;;4.20;1.75;;;3.30;97.30;;;;;;5002377;28;20586;-75
2023/12/07 15:15:49;;;;;;;2.10;1.75;;;3.30;97.40;;;;;;4999442;28;20611;-74
2023/12/07 15:18:17;;;;;;;2.00;1.77;;;3.20;97.90;;;;;;5001940;28;20210;-74
2023/12/07 15:20:44;;;;;;;1.63;1.50;;;3.20;98.10;;;;;;4999498;28;20226;-74
2023/12/07 15:23:10;;;;;;;1.40;1.10;;;3.10;98.50;;;;;;5002010;28;20626;-74
2023/12/07 15:25:37;;;;;;;5.25;2.20;;;3.00;98.50;;;;;;4997019;28;20208;-74
2023/12/07 15:28:04;;;;;;;1.75;1.65;;;2.90;98.10;;;;;;5001932;28;20212;-74
2023/12/07 15:30:34;;;;;;;2.40;1.70;;;2.80;98.40;;;;;;5002329;28;20199;-74
2023/12/07 15:33:00;;;;;;;2.30;1.75;;;2.70;98.50;;;;;;5004682;28;20211;-74
2023/12/07 15:35:28;;;;;;;2.10;1.83;;;2.70;98.70;;;;;;5006412;28;20214;-74
2023/12/07 15:37:55;;;;;;;1.60;1.50;;;2.60;98.60;;;;;;5002964;28;20686;-74
2023/12/07 15:40:22;;;;;;;1.70;1.58;;;2.60;99.20;;;;;;5006459;28;20553;-74
2023/12/07 15:42:49;;;;;;;4.70;2.65;;;2.50;99.20;;;;;;5000436;28;20226;-73
2023/12/07 15:45:15;;;;;;;4.65;2.03;;;2.40;99.30;;;;;;4999180;28;20616;-74
2023/12/07 15:47:42;;;;;;;2.53;2.33;;;2.30;99.40;;;;;;4973733;28;20209;-74
2023/12/07 15:50:11;;;;;;;5.32;1.88;;;2.30;99.80;;;;;;4999893;28;20239;-74
2023/12/07 15:52:39;;;;;;;2.05;1.83;;;2.30;99.90;;;;;;5003802;28;20225;-74
2023/12/07 15:55:07;;;;;;;1.60;1.42;;;2.20;99.90;;;;;;5004421;28;20210;-71
2023/12/07 15:57:34;;;;;;;3.13;1.90;;;2.10;99.90;;;;;;5003869;28;20225;-71
2023/12/07 16:00:00;;;;;;;2.92;1.50;;;2.10;99.90;;;;;;5004121;28;20576;-71
2023/12/07 16:02:27;;;;;;;2.22;1.58;;;2.00;99.90;;;;;;5006305;28;20222;-71
2023/12/07 16:04:54;;;;;;;1.85;1.50;;;2.00;99.90;;;;;;5003230;28;20212;-71
2023/12/07 16:07:20;;;;;;;2.53;1.90;;;1.90;99.90;;;;;;4998626;28;20210;-71
2023/12/07 16:09:49;;;;;;;3.08;2.30;;;1.80;99.90;;;;;;5003377;28;20226;-71
2023/12/07 16:12:15;;;;;;;3.55;2.38;;;1.80;99.90;;;;;;5006069;28;20570;-71
2023/12/07 16:14:41;;;;;;;2.63;2.27;;;1.80;99.90;;;;;;5004225;28;20213;-71
2023/12/07 16:17:08;;;;;;;2.58;2.33;;;1.70;99.90;;;;;;5004788;28;20469;-71
2023/12/07 16:19:35;;;;;;;4.53;2.28;;;1.60;99.90;;;;;;5005159;28;20210;-71
2023/12/07 16:22:01;;;;;;;2.78;2.20;;;1.60;99.90;;;;;;5004554;28;20228;-71
2023/12/07 16:24:28;;;;;;;2.58;2.38;;;1.60;99.90;;;;;;5006336;28;20207;-71
2023/12/07 16:26:58;;;;;;;3.60;2.90;;;1.50;99.90;;;;;;5003306;28;20211;-70
2023/12/07 16:29:25;;;;;;;4.72;2.60;;;1.50;99.90;;;;;;5006641;28;20205;-71
2023/12/07 16:31:52;;;;;;;5.20;2.65;;;1.40;99.90;;;;;;5003106;28;20315;-71
2023/12/07 16:34:20;;;;;;;3.95;3.50;;;1.30;99.90;;;;;;5006841;28;20202;-71
2023/12/07 16:36:47;;;;;;;3.80;2.50;;;1.30;99.90;;;;;;5003817;28;20217;-71
2023/12/07 16:39:15;;;;;;;2.70;2.50;;;1.20;99.90;;;;;;5006068;28;20215;-71
2023/12/07 16:41:42;;;;;;;4.13;2.75;;;1.20;99.90;;;;;;5000340;28;20222;-70
2023/12/07 16:44:10;;;;;;;4.28;3.13;;;1.20;99.90;;;;;;5004479;28;20207;-70
2023/12/07 16:46:37;;;;;;;3.67;2.65;;;1.10;99.90;;;;;;5005016;28;20214;-71
2023/12/07 16:49:04;;;;;;;2.85;2.22;;;1.20;99.90;;;;;;5003911;28;20202;-70
2023/12/07 16:51:31;;;;;;;2.58;1.70;;;1.10;99.90;;;;;;5003369;28;20633;-71
2023/12/07 16:53:58;;;;;;;3.20;2.38;;;1.10;99.90;;;;;;5002590;28;20203;-71
2023/12/07 16:56:24;;;;;;;4.20;3.80;;;1.10;99.90;;;;;;5006553;28;20737;-72
2023/12/07 16:58:51;;;;;;;3.60;2.80;;;1.10;99.90;;;;;;5003030;28;20207;-72
2023/12/07 17:01:19;;;;;;;5.32;3.63;;;1.10;99.90;;;;;;5000538;28;20229;-72
2023/12/07 17:03:46;;;;;;;4.60;3.30;;;1.20;99.90;;;;;;5004379;28;20210;-72
2023/12/07 17:06:14;;;;;;;2.65;2.30;;;1.10;99.90;;;;;;5007837;28;20547;-72
2023/12/07 17:08:41;;;;;;;3.83;2.75;;;1.10;99.90;;;;;;5005018;28;20221;-72
2023/12/07 17:11:08;;;;;;;4.78;3.40;;;1.10;99.90;;;;;;5005381;28;20234;-72